Time;durP1;ratioP1;P1;durP2;ratioP2;P2;SDS_P1;SDS_P2;PMS_P1;PMS_P2;Temp;Humidity;BMP_temperature;BMP_pressure;BME280_temperature;BME280_humidity;BME280_pressure;Samples;Min_cycle;Max_cycle;Signal;HPM_P1;HPM_P2
2023/03/06 00:00:39;;;;;;;19.9;11.7;;;;;;;3.13;74.55957;929.2133;;;;
2023/03/06 00:03:11;;;;;;;17.1;10.5;;;;;;;3.18;74.23047;929.1829;;;;
2023/03/06 00:05:39;;;;;;;17.7;11;;;;;;;3.17;73.55664;929.2141;;;;
2023/03/06 00:08:04;;;;;;;20.4;12.1;;;;;;;3.17;73.87109;929.1756;;;;
2023/03/06 00:10:29;;;;;;;17;10.9;;;;;;;3.22;74.63086;929.228;;;;
2023/03/06 00:12:57;;;;;;;29.2;17.6;;;;;;;3.22;74.85547;929.1613;;;;
2023/03/06 00:15:39;;;;;;;16.4;10.5;;;;;;;3.24;74.82715;929.0744;;;;
2023/03/06 00:18:04;;;;;;;20.3;11.3;;;;;;;3.22;74.81055;929.0983;;;;
2023/03/06 00:20:30;;;;;;;17.2;10.8;;;;;;;3.19;75.0752;929.1147;;;;
2023/03/06 00:22:55;;;;;;;16.9;10.7;;;;;;;3.17;75.16016;929.0198;;;;
2023/03/06 00:25:26;;;;;;;18.3;10.7;;;;;;;3.13;75.06445;928.9238;;;;
2023/03/06 00:28:19;;;;;;;20;11.6;;;;;;;3.1;75.05957;929.0318;;;;
2023/03/06 00:30:52;;;;;;;17.7;10.7;;;;;;;2.99;75.28711;928.9952;;;;
2023/03/06 00:33:22;;;;;;;15.6;9.7;;;;;;;2.82;75.72656;928.9598;;;;
2023/03/06 00:35:47;;;;;;;16.4;10;;;;;;;2.69;76.25488;928.8781;;;;
2023/03/06 00:38:12;;;;;;;17.6;11.4;;;;;;;2.6;76.74121;928.9557;;;;
2023/03/06 00:40:37;;;;;;;16.8;10.9;;;;;;;2.54;76.9668;928.9339;;;;
2023/03/06 00:43:10;;;;;;;17.8;11.1;;;;;;;2.4;77.67969;928.9105;;;;
2023/03/06 00:45:35;;;;;;;18.9;11;;;;;;;2.43;77.49609;928.8378;;;;
2023/03/06 00:48:05;;;;;;;20;11.7;;;;;;;2.51;77.31836;928.7611;;;;
2023/03/06 00:50:30;;;;;;;19;11.4;;;;;;;2.52;77.19727;928.7975;;;;
2023/03/06 00:52:58;;;;;;;23;12;;;;;;;2.45;77.0957;928.7816;;;;
2023/03/06 00:55:47;;;;;;;22.2;12.2;;;;;;;2.39;77.61133;928.7068;;;;
2023/03/06 00:58:12;;;;;;;18.6;11.9;;;;;;;2.37;77.30371;928.6883;;;;
2023/03/06 01:00:37;;;;;;;19.7;11.2;;;;;;;2.17;77.72852;928.6236;;;;
2023/03/06 01:05:37;;;;;;;20.6;12.2;;;;;;;2.1;78.83398;928.5801;;;;
2023/03/06 01:08:05;;;;;;;18.7;11.3;;;;;;;2.15;78.35156;928.4872;;;;
2023/03/06 01:10:34;;;;;;;20.9;12.4;;;;;;;2.27;77.97168;928.463;;;;
2023/03/06 01:12:59;;;;;;;19.7;11.4;;;;;;;2.41;77.63672;928.4328;;;;
2023/03/06 01:15:34;;;;;;;18.5;11.4;;;;;;;2.5;76.8252;928.3689;;;;
2023/03/06 01:18:01;;;;;;;21.5;11.6;;;;;;;2.45;77.14063;928.3976;;;;
2023/03/06 01:20:30;;;;;;;18.5;11.5;;;;;;;2.53;77.13281;928.2431;;;;
2023/03/06 01:22:55;;;;;;;18.1;11;;;;;;;2.52;77.05273;928.2916;;;;
2023/03/06 01:25:23;;;;;;;17.4;10.9;;;;;;;2.48;77.14551;928.2403;;;;
2023/03/06 01:27:48;;;;;;;16.8;10.7;;;;;;;2.41;77.63672;928.1791;;;;
2023/03/06 01:30:22;;;;;;;19.1;11;;;;;;;2.42;77.47168;928.1462;;;;
2023/03/06 01:32:52;;;;;;;17.7;11.8;;;;;;;2.44;77.29395;928.0666;;;;
2023/03/06 01:35:21;;;;;;;19.8;10.9;;;;;;;2.32;77.4873;928.0133;;;;
2023/03/06 01:37:46;;;;;;;20.2;11.2;;;;;;;2.26;77.77832;927.9758;;;;
2023/03/06 01:40:12;;;;;;;17;10.5;;;;;;;2.26;77.81055;927.9648;;;;
2023/03/06 01:42:44;;;;;;;19.1;10.9;;;;;;;2.19;78.04297;927.9651;;;;
2023/03/06 01:45:10;;;;;;;17.6;10.9;;;;;;;2.21;78.09473;927.9072;;;;
2023/03/06 01:47:43;;;;;;;19;11.1;;;;;;;2.24;78.1875;927.9226;;;;
2023/03/06 01:50:11;;;;;;;21.4;11.1;;;;;;;2.32;77.77734;927.8365;;;;
2023/03/06 01:52:45;;;;;;;19.5;10.8;;;;;;;2.38;77.60938;927.8465;;;;
2023/03/06 01:55:11;;;;;;;17.1;9.9;;;;;;;2.31;77.99902;927.7255;;;;
2023/03/06 01:57:38;;;;;;;19.2;10.6;;;;;;;2.32;78.1582;927.7297;;;;
2023/03/06 02:00:03;;;;;;;21;11.8;;;;;;;2.29;78.09668;927.715;;;;
2023/03/06 02:02:31;;;;;;;18.6;10.9;;;;;;;2.26;78.51563;927.6403;;;;
2023/03/06 02:08:39;;;;;;;17.2;10.6;;;;;;;2.17;79.03809;927.6075;;;;
2023/03/06 02:11:05;;;;;;;16.7;10.8;;;;;;;2.22;78.95898;927.5572;;;;
2023/03/06 02:13:35;;;;;;;18.6;11.3;;;;;;;2.23;78.75684;927.5628;;;;
2023/03/06 02:16:04;;;;;;;19.6;11.4;;;;;;;2.25;78.68359;927.4384;;;;
2023/03/06 02:18:30;;;;;;;15.7;10;;;;;;;2.19;78.66113;927.4014;;;;
2023/03/06 02:20:59;;;;;;;20.6;11.5;;;;;;;2.13;78.94043;927.3381;;;;
2023/03/06 02:23:24;;;;;;;18.6;10.9;;;;;;;2.11;79.08203;927.2881;;;;
2023/03/06 02:25:55;;;;;;;18.4;10.6;;;;;;;2.1;79.30469;927.2626;;;;
2023/03/06 02:34:36;;;;;;;18.2;11.2;;;;;;;1.98;80.14258;927.0627;;;;
2023/03/06 02:37:07;;;;;;;19.5;11.4;;;;;;;1.88;80.69434;927.0092;;;;
2023/03/06 02:39:31;;;;;;;19;11.5;;;;;;;1.69;81.56641;927.0156;;;;
2023/03/06 02:41:57;;;;;;;19.5;11.2;;;;;;;1.62;82.32324;926.8674;;;;
2023/03/06 02:44:22;;;;;;;20.4;11.7;;;;;;;1.74;81.93457;927.0364;;;;
2023/03/06 02:46:47;;;;;;;17.5;10.5;;;;;;;1.7;81.89063;926.9773;;;;
2023/03/06 02:58:04;;;;;;;20.2;11.3;;;;;;;1.58;82.59473;926.9592;;;;
2023/03/06 03:00:35;;;;;;;19.2;11.3;;;;;;;1.68;82.24512;926.9039;;;;
2023/03/06 03:03:06;;;;;;;21.2;11.5;;;;;;;1.75;81.69043;926.8367;;;;
2023/03/06 03:05:38;;;;;;;21.4;12.1;;;;;;;1.77;81.45898;926.7908;;;;
2023/03/06 03:08:08;;;;;;;20.3;11.5;;;;;;;1.8;81.27344;926.7926;;;;
2023/03/06 03:10:33;;;;;;;17.2;10.5;;;;;;;1.86;80.96094;926.7594;;;;
2023/03/06 03:13:00;;;;;;;16.6;10;;;;;;;1.78;80.87891;926.758;;;;
2023/03/06 03:15:31;;;;;;;18.4;10.5;;;;;;;1.65;81.13281;926.6813;;;;
2023/03/06 03:18:06;;;;;;;17.8;10.8;;;;;;;1.52;81.64453;926.7061;;;;
2023/03/06 03:20:31;;;;;;;18.6;10.8;;;;;;;1.46;82.01465;926.6434;;;;
2023/03/06 03:23:02;;;;;;;18.4;10.9;;;;;;;1.35;82.77344;926.6688;;;;
2023/03/06 03:25:27;;;;;;;19.4;10.7;;;;;;;1.33;82.87988;926.6752;;;;
2023/03/06 03:27:54;;;;;;;18.5;10.9;;;;;;;1.37;82.63184;926.6323;;;;
2023/03/06 03:30:22;;;;;;;17.2;10.5;;;;;;;1.45;82.40234;926.6386;;;;
2023/03/06 03:32:51;;;;;;;16.7;10.9;;;;;;;1.48;81.83887;926.557;;;;
2023/03/06 03:35:18;;;;;;;19.9;11.4;;;;;;;1.55;81.70605;926.5789;;;;
2023/03/06 03:37:47;;;;;;;18;10.6;;;;;;;1.51;81.19629;926.6016;;;;
2023/03/06 03:40:12;;;;;;;18.2;11.1;;;;;;;1.49;80.99121;926.543;;;;
2023/03/06 03:42:43;;;;;;;18.4;11.5;;;;;;;1.48;81.16797;926.5232;;;;
2023/03/06 03:45:20;;;;;;;19;11.8;;;;;;;1.46;81.10742;926.525;;;;
2023/03/06 03:47:51;;;;;;;19.2;11.3;;;;;;;1.37;81.23535;926.5132;;;;
2023/03/06 03:50:16;;;;;;;19.7;11.6;;;;;;;1.37;81.24609;926.5178;;;;
2023/03/06 03:52:42;;;;;;;18.8;10.8;;;;;;;1.28;81.39648;926.4073;;;;
2023/03/06 03:55:13;;;;;;;16.9;11;;;;;;;1.3;81.02148;926.4653;;;;
2023/03/06 03:57:39;;;;;;;22.1;12.2;;;;;;;1.2;81.49414;926.4244;;;;
2023/03/06 04:01:01;;;;;;;21.4;12.2;;;;;;;1.15;81.93262;926.3947;;;;
2023/03/06 04:03:23;;;;;;;20.2;12.3;;;;;;;1.13;82.36133;926.4559;;;;
2023/03/06 04:05:54;;;;;;;19.7;12.1;;;;;;;1.11;82.30176;926.4595;;;;
2023/03/06 04:08:16;;;;;;;21;12.1;;;;;;;1.12;82.38379;926.3845;;;;
2023/03/06 04:10:46;;;;;;;21.1;11.5;;;;;;;1.12;82.33691;926.3719;;;;
2023/03/06 04:19:30;;;;;;;22.4;12.4;;;;;;;1.08;82.375;926.5393;;;;
2023/03/06 04:21:55;;;;;;;19.6;12.4;;;;;;;1.09;82.20703;926.5944;;;;
2023/03/06 04:24:23;;;;;;;21.4;12.3;;;;;;;1.1;82.03418;926.6364;;;;
2023/03/06 04:26:48;;;;;;;19.3;11.3;;;;;;;1.08;82.16211;926.5731;;;;
2023/03/06 04:29:15;;;;;;;21.9;12.4;;;;;;;1.09;82.62207;926.5757;;;;
2023/03/06 04:31:40;;;;;;;22.1;11.5;;;;;;;1;83.01758;926.5747;;;;
2023/03/06 04:34:08;;;;;;;21.8;12.3;;;;;;;0.98;82.5791;926.5826;;;;
2023/03/06 04:36:43;;;;;;;21.5;12;;;;;;;0.93;82.90332;926.5611;;;;
2023/03/06 04:39:03;;;;;;;21.9;11.8;;;;;;;0.99;82.70117;926.5845;;;;
2023/03/06 04:41:29;;;;;;;22.2;13.4;;;;;;;0.94;83.0625;926.5388;;;;
2023/03/06 04:43:57;;;;;;;23.1;13.6;;;;;;;0.87;83.39453;926.5078;;;;
2023/03/06 04:46:22;;;;;;;22.6;12.6;;;;;;;0.8;83.62598;926.5778;;;;
2023/03/06 04:48:55;;;;;;;21.7;12.4;;;;;;;0.8;83.78223;926.5204;;;;
2023/03/06 04:51:25;;;;;;;24.3;13.3;;;;;;;0.83;83.56445;926.5851;;;;
2023/03/06 04:53:56;;;;;;;22.2;13.2;;;;;;;0.91;83.3252;926.5655;;;;
2023/03/06 04:56:22;;;;;;;20.7;12.3;;;;;;;0.91;82.95703;926.5984;;;;
2023/03/06 04:58:49;;;;;;;21.7;12.8;;;;;;;0.89;83.19727;926.5374;;;;
2023/03/06 05:01:14;;;;;;;21.3;12.3;;;;;;;0.85;83.13477;926.5715;;;;
2023/03/06 05:03:46;;;;;;;32.9;19.9;;;;;;;0.83;83.27441;926.5139;;;;
2023/03/06 05:06:15;;;;;;;20.5;12.4;;;;;;;0.84;83.25586;926.4712;;;;
2023/03/06 05:08:43;;;;;;;19;11.8;;;;;;;0.84;83.21973;926.4789;;;;
2023/03/06 05:11:08;;;;;;;19.9;12.6;;;;;;;0.83;82.94141;926.4458;;;;
2023/03/06 05:13:36;;;;;;;23;12.6;;;;;;;0.74;83.5127;926.483;;;;
2023/03/06 05:16:01;;;;;;;20.3;12.5;;;;;;;0.64;83.97461;926.5047;;;;
2023/03/06 05:18:29;;;;;;;21.6;12.1;;;;;;;0.59;84.33203;926.3981;;;;
2023/03/06 05:20:58;;;;;;;19.1;12.1;;;;;;;0.54;84.58887;926.4891;;;;
2023/03/06 05:23:19;;;;;;;20.9;11.9;;;;;;;0.49;84.87012;926.4878;;;;
2023/03/06 05:25:44;;;;;;;24.4;13.1;;;;;;;0.47;85.02051;926.5411;;;;
2023/03/06 05:28:12;;;;;;;22.9;12;;;;;;;0.59;84.39941;926.4958;;;;
2023/03/06 05:30:38;;;;;;;20.8;12.3;;;;;;;0.57;84.2041;926.4797;;;;
2023/03/06 05:33:06;;;;;;;20.8;12.5;;;;;;;0.63;84.45117;926.4519;;;;
2023/03/06 05:35:31;;;;;;;24.9;14;;;;;;;0.62;84.61816;926.4602;;;;
2023/03/06 05:37:57;;;;;;;23;13.5;;;;;;;0.59;84.62207;926.4192;;;;
2023/03/06 05:40:25;;;;;;;22.6;13.1;;;;;;;0.61;84.86035;926.3855;;;;
2023/03/06 05:42:56;;;;;;;24.1;12.6;;;;;;;0.72;84.17871;926.4315;;;;
2023/03/06 05:45:21;;;;;;;24.3;13.3;;;;;;;0.81;83.67285;926.3747;;;;
2023/03/06 05:47:50;;;;;;;22.7;12.7;;;;;;;0.83;83.375;926.4542;;;;
2023/03/06 05:50:18;;;;;;;22.6;13.7;;;;;;;;;;;;;
2023/03/06 05:52:43;;;;;;;23.4;14.1;;;;;;;;;;;;;
2023/03/06 05:55:10;;;;;;;27.6;15.1;;;;;;;;;;;;;
2023/03/06 05:57:35;;;;;;;23.7;14.9;;;;;;;;;;;;;
2023/03/06 06:00:00;;;;;;;24.4;14.6;;;;;;;;;;;;;
2023/03/06 06:02:25;;;;;;;21.7;13.5;;;;;;;;;;;;;
2023/03/06 06:04:51;;;;;;;21.7;13;;;;;;;;;;;;;
2023/03/06 06:07:17;;;;;;;24.1;13;;;;;;;;;;;;;
2023/03/06 06:09:45;;;;;;;22.7;13.2;;;;;;;;;;;;;
2023/03/06 06:12:09;;;;;;;19;12.2;;;;;;;;;;;;;
2023/03/06 06:14:34;;;;;;;22.9;12.9;;;;;;;;;;;;;
2023/03/06 06:16:59;;;;;;;21.4;12.3;;;;;;;;;;;;;
2023/03/06 06:19:26;;;;;;;21.2;12.1;;;;;;;;;;;;;
2023/03/06 06:21:51;;;;;;;21.6;12.5;;;;;;;;;;;;;
2023/03/06 06:24:16;;;;;;;19.6;11.8;;;;;;;;;;;;;
2023/03/06 06:26:41;;;;;;;21.5;12.5;;;;;;;;;;;;;
2023/03/06 06:29:08;;;;;;;23.7;12.9;;;;;;;;;;;;;
2023/03/06 06:31:35;;;;;;;22.2;12.8;;;;;;;;;;;;;
2023/03/06 06:33:58;;;;;;;24.6;13.2;;;;;;;;;;;;;
2023/03/06 06:36:23;;;;;;;20.3;11.8;;;;;;;;;;;;;
2023/03/06 06:38:48;;;;;;;21.5;12.3;;;;;;;;;;;;;
2023/03/06 06:41:14;;;;;;;20.9;12;;;;;;;;;;;;;
2023/03/06 06:43:39;;;;;;;22;12.2;;;;;;;;;;;;;
2023/03/06 06:46:06;;;;;;;20.8;11.9;;;;;;;;;;;;;
2023/03/06 06:48:31;;;;;;;21.7;12.5;;;;;;;;;;;;;
2023/03/06 06:50:57;;;;;;;20.1;13.5;;;;;;;;;;;;;
2023/03/06 06:53:23;;;;;;;23.9;15.1;;;;;;;;;;;;;
2023/03/06 06:55:48;;;;;;;29.7;17.1;;;;;;;;;;;;;
2023/03/06 06:58:13;;;;;;;22.5;14.2;;;;;;;;;;;;;
2023/03/06 07:00:39;;;;;;;23.2;14.5;;;;;;;;;;;;;
2023/03/06 07:03:04;;;;;;;25.7;15.6;;;;;;;;;;;;;
2023/03/06 07:05:29;;;;;;;24.7;14.6;;;;;;;;;;;;;
2023/03/06 07:07:55;;;;;;;25.4;15.3;;;;;;;;;;;;;
2023/03/06 07:10:20;;;;;;;23.2;14.8;;;;;;;;;;;;;
2023/03/06 07:12:46;;;;;;;20.7;12;;;;;;;;;;;;;
2023/03/06 07:15:12;;;;;;;24.8;12.8;;;;;;;;;;;;;
2023/03/06 07:17:38;;;;;;;17.8;11.1;;;;;;;;;;;;;
2023/03/06 07:20:05;;;;;;;22;11.8;;;;;;;;;;;;;
2023/03/06 07:22:31;;;;;;;22.4;11.5;;;;;;;;;;;;;
2023/03/06 07:24:56;;;;;;;24.9;12.8;;;;;;;;;;;;;
2023/03/06 07:27:24;;;;;;;23.7;13.7;;;;;;;;;;;;;
2023/03/06 07:29:48;;;;;;;21.9;12.5;;;;;;;;;;;;;
2023/03/06 07:32:13;;;;;;;21.9;11.7;;;;;;;;;;;;;
2023/03/06 07:34:39;;;;;;;23.8;13.7;;;;;;;;;;;;;
2023/03/06 07:37:04;;;;;;;23.1;12.7;;;;;;;;;;;;;
2023/03/06 07:39:29;;;;;;;24.7;12.8;;;;;;;;;;;;;
2023/03/06 07:41:57;;;;;;;22.7;12;;;;;;;;;;;;;
2023/03/06 07:44:21;;;;;;;19.6;11.4;;;;;;;;;;;;;
2023/03/06 07:46:47;;;;;;;29;12.4;;;;;;;;;;;;;
2023/03/06 07:49:12;;;;;;;25;12.1;;;;;;;;;;;;;
2023/03/06 07:51:38;;;;;;;26.8;12.6;;;;;;;;;;;;;
2023/03/06 07:54:03;;;;;;;41.3;14.5;;;;;;;;;;;;;
2023/03/06 07:56:29;;;;;;;22.6;12.5;;;;;;;;;;;;;
2023/03/06 07:58:54;;;;;;;24.4;12.3;;;;;;;;;;;;;
2023/03/06 08:01:22;;;;;;;35.9;14.1;;;;;;;;;;;;;
2023/03/06 08:03:48;;;;;;;20.9;11.7;;;;;;;;;;;;;
2023/03/06 08:06:11;;;;;;;21;11.9;;;;;;;;;;;;;
2023/03/06 08:08:38;;;;;;;21;12.1;;;;;;;;;;;;;
2023/03/06 08:11:02;;;;;;;20.7;11.6;;;;;;;;;;;;;
2023/03/06 08:13:27;;;;;;;16.9;10.9;;;;;;;;;;;;;
2023/03/06 08:15:53;;;;;;;19.3;11.2;;;;;;;;;;;;;
2023/03/06 08:18:19;;;;;;;25.7;13.3;;;;;;;;;;;;;
2023/03/06 08:20:44;;;;;;;24.6;13;;;;;;;;;;;;;
2023/03/06 08:23:10;;;;;;;18.3;11.3;;;;;;;;;;;;;
2023/03/06 08:25:35;;;;;;;19.4;11.4;;;;;;;;;;;;;
2023/03/06 08:28:02;;;;;;;19.7;11.2;;;;;;;;;;;;;
2023/03/06 08:30:27;;;;;;;31.3;15.7;;;;;;;;;;;;;
2023/03/06 08:32:55;;;;;;;36.9;17.1;;;;;;;;;;;;;
2023/03/06 08:35:24;;;;;;;28.1;14.4;;;;;;;;;;;;;
2023/03/06 08:37:49;;;;;;;25.5;13.7;;;;;;;;;;;;;
2023/03/06 08:40:17;;;;;;;22.4;12.1;;;;;;;;;;;;;
2023/03/06 08:42:42;;;;;;;18.4;11.5;;;;;;;;;;;;;
2023/03/06 08:45:07;;;;;;;22.5;12.9;;;;;;;;;;;;;
2023/03/06 08:47:33;;;;;;;21.9;12.6;;;;;;;;;;;;;
2023/03/06 08:49:59;;;;;;;20.5;12.1;;;;;;;;;;;;;
2023/03/06 08:52:25;;;;;;;19.2;12.2;;;;;;;;;;;;;
2023/03/06 08:54:50;;;;;;;22.9;12.7;;;;;;;;;;;;;
2023/03/06 08:57:17;;;;;;;20.8;12.5;;;;;;;;;;;;;
2023/03/06 08:59:42;;;;;;;22.5;12.5;;;;;;;;;;;;;
2023/03/06 09:02:10;;;;;;;19.6;11.4;;;;;;;;;;;;;
2023/03/06 09:04:34;;;;;;;29.9;12.7;;;;;;;;;;;;;
2023/03/06 09:07:00;;;;;;;20.5;12.1;;;;;;;;;;;;;
2023/03/06 09:09:25;;;;;;;21.6;12.7;;;;;;;;;;;;;
2023/03/06 09:11:50;;;;;;;17.7;11;;;;;;;;;;;;;
2023/03/06 09:14:15;;;;;;;20.5;11.3;;;;;;;;;;;;;
2023/03/06 09:16:42;;;;;;;16.4;10.4;;;;;;;;;;;;;
2023/03/06 09:19:07;;;;;;;23.4;13.1;;;;;;;;;;;;;
2023/03/06 09:21:35;;;;;;;21.9;12.3;;;;;;;;;;;;;
2023/03/06 09:24:00;;;;;;;22.3;11.9;;;;;;;;;;;;;
2023/03/06 09:26:25;;;;;;;20.8;11.2;;;;;;;;;;;;;
2023/03/06 09:28:51;;;;;;;19.8;11.7;;;;;;;;;;;;;
2023/03/06 09:31:18;;;;;;;28.4;12.4;;;;;;;;;;;;;
2023/03/06 09:33:43;;;;;;;16.7;11;;;;;;;;;;;;;
2023/03/06 09:36:08;;;;;;;20.6;11.4;;;;;;;;;;;;;
2023/03/06 09:38:33;;;;;;;17.9;10.4;;;;;;;;;;;;;
2023/03/06 09:40:59;;;;;;;17.5;10.7;;;;;;;;;;;;;
2023/03/06 09:43:24;;;;;;;20.3;10.5;;;;;;;;;;;;;
2023/03/06 09:45:51;;;;;;;16.8;10.5;;;;;;;;;;;;;
2023/03/06 09:48:16;;;;;;;16.9;10.5;;;;;;;;;;;;;
2023/03/06 09:50:42;;;;;;;18;10.7;;;;;;;;;;;;;
2023/03/06 09:53:09;;;;;;;17.2;10.8;;;;;;;;;;;;;
2023/03/06 09:55:34;;;;;;;16.9;10.2;;;;;;;;;;;;;
2023/03/06 09:57:59;;;;;;;18.3;10.8;;;;;;;;;;;;;
2023/03/06 10:00:25;;;;;;;18.5;11.5;;;;;;;;;;;;;
2023/03/06 10:02:55;;;;;;;18.3;10.8;;;;;;;;;;;;;
2023/03/06 10:05:19;;;;;;;21.1;12.3;;;;;;;;;;;;;
2023/03/06 10:07:44;;;;;;;18.2;10.8;;;;;;;;;;;;;
2023/03/06 10:10:14;;;;;;;20.6;12.5;;;;;;;;;;;;;
2023/03/06 10:12:39;;;;;;;20.6;12.1;;;;;;;;;;;;;
2023/03/06 10:15:04;;;;;;;19.3;12.3;;;;;;;;;;;;;
2023/03/06 10:17:30;;;;;;;21;12.5;;;;;;;;;;;;;
2023/03/06 10:19:55;;;;;;;20.7;12.1;;;;;;;;;;;;;
2023/03/06 10:22:20;;;;;;;24.4;13.1;;;;;;;;;;;;;
2023/03/06 10:24:47;;;;;;;21.9;12.9;;;;;;;;;;;;;
2023/03/06 10:27:12;;;;;;;22.1;13.3;;;;;;;;;;;;;
2023/03/06 10:29:38;;;;;;;20.8;12.2;;;;;;;;;;;;;
2023/03/06 10:32:04;;;;;;;22.3;12.8;;;;;;;;;;;;;
2023/03/06 10:34:29;;;;;;;24.9;14;;;;;;;;;;;;;
2023/03/06 10:36:56;;;;;;;24.5;14.2;;;;;;;;;;;;;
2023/03/06 10:39:21;;;;;;;25.9;14.4;;;;;;;;;;;;;
2023/03/06 10:41:47;;;;;;;27.3;15.7;;;;;;;;;;;;;
2023/03/06 10:44:13;;;;;;;27;15.3;;;;;;;;;;;;;
2023/03/06 10:46:38;;;;;;;24.5;14.9;;;;;;;;;;;;;
2023/03/06 10:49:03;;;;;;;25;14.3;;;;;;;;;;;;;
2023/03/06 10:51:28;;;;;;;26.8;15.7;;;;;;;;;;;;;
2023/03/06 10:53:53;;;;;;;28.2;16.4;;;;;;;;;;;;;
2023/03/06 10:56:18;;;;;;;29.1;16.7;;;;;;;;;;;;;
2023/03/06 10:58:45;;;;;;;28;15.6;;;;;;;;;;;;;
2023/03/06 11:01:11;;;;;;;25.6;15.9;;;;;;;;;;;;;
2023/03/06 11:03:46;;;;;;;28;16;;;;;;;;;;;;;
2023/03/06 11:06:05;;;;;;;25.2;15.3;;;;;;;;;;;;;
2023/03/06 11:08:30;;;;;;;27.5;15.5;;;;;;;;;;;;;
2023/03/06 11:10:58;;;;;;;26.7;15.8;;;;;;;;;;;;;
2023/03/06 11:13:23;;;;;;;26.2;15.2;;;;;;;;;;;;;
2023/03/06 11:15:50;;;;;;;27.3;16.1;;;;;;;;;;;;;
2023/03/06 11:18:15;;;;;;;27.8;16.2;;;;;;;;;;;;;
2023/03/06 11:20:40;;;;;;;26.1;15.5;;;;;;;;;;;;;
2023/03/06 11:23:05;;;;;;;26.2;15.3;;;;;;;;;;;;;
2023/03/06 11:25:31;;;;;;;26.9;15.2;;;;;;;;;;;;;
2023/03/06 11:27:57;;;;;;;25.3;15;;;;;;;;;;;;;
2023/03/06 11:30:25;;;;;;;27.3;15;;;;;;;;;;;;;
2023/03/06 11:32:49;;;;;;;27.5;15.8;;;;;;;;;;;;;
2023/03/06 11:35:14;;;;;;;29.7;16.1;;;;;;;;;;;;;
2023/03/06 11:37:40;;;;;;;27.6;15.8;;;;;;;;;;;;;
2023/03/06 11:40:06;;;;;;;26.8;16.1;;;;;;;;;;;;;
2023/03/06 11:42:31;;;;;;;26.2;16.4;;;;;;;;;;;;;
2023/03/06 11:44:56;;;;;;;26.6;15.3;;;;;;;;;;;;;
2023/03/06 11:47:22;;;;;;;24.4;15.6;;;;;;;;;;;;;
2023/03/06 11:49:48;;;;;;;28;16.8;;;;;;;;;;;;;
2023/03/06 11:52:13;;;;;;;27.2;16;;;;;;;;;;;;;
2023/03/06 11:54:38;;;;;;;27;15.7;;;;;;;;;;;;;
2023/03/06 11:57:03;;;;;;;30.7;16.5;;;;;;;;;;;;;
2023/03/06 11:59:31;;;;;;;29.2;17.4;;;;;;;;;;;;;
2023/03/06 12:01:56;;;;;;;27.7;16.7;;;;;;;;;;;;;
2023/03/06 12:04:24;;;;;;;29.8;16.7;;;;;;;;;;;;;
2023/03/06 12:06:49;;;;;;;28.3;16.6;;;;;;;;;;;;;
2023/03/06 12:09:14;;;;;;;31.7;17.5;;;;;;;;;;;;;
2023/03/06 12:11:39;;;;;;;30.6;17.6;;;;;;;;;;;;;
2023/03/06 12:14:04;;;;;;;31.8;17.9;;;;;;;;;;;;;
2023/03/06 12:16:34;;;;;;;30.7;17.6;;;;;;;;;;;;;
2023/03/06 12:19:02;;;;;;;27.9;16.9;;;;;;;;;;;;;
2023/03/06 12:21:27;;;;;;;28.5;16.3;;;;;;;;;;;;;
2023/03/06 12:23:52;;;;;;;29.9;17.5;;;;;;;;;;;;;
2023/03/06 12:26:18;;;;;;;31.7;18.2;;;;;;;;;;;;;
2023/03/06 12:28:45;;;;;;;31.7;18.2;;;;;;;;;;;;;
2023/03/06 12:31:11;;;;;;;32;18.5;;;;;;;;;;;;;
2023/03/06 12:33:39;;;;;;;32.3;17.9;;;;;;;;;;;;;
2023/03/06 12:36:04;;;;;;;30.4;17.8;;;;;;;;;;;;;
2023/03/06 12:38:31;;;;;;;30;17.9;;;;;;;;;;;;;
2023/03/06 12:40:57;;;;;;;31.4;18.1;;;;;;;;;;;;;
2023/03/06 12:43:22;;;;;;;29.9;17.4;;;;;;;;;;;;;
2023/03/06 12:45:48;;;;;;;32.3;18.2;;;;;;;;;;;;;
2023/03/06 12:48:13;;;;;;;32.2;18.4;;;;;;;;;;;;;
2023/03/06 12:50:43;;;;;;;34.2;18.2;;;;;;;;;;;;;
2023/03/06 12:53:04;;;;;;;34.2;19.5;;;;;;;;;;;;;
2023/03/06 12:55:31;;;;;;;32.4;19.1;;;;;;;;;;;;;
2023/03/06 12:57:56;;;;;;;33.4;18.1;;;;;;;;;;;;;
2023/03/06 13:00:21;;;;;;;29.7;17.5;;;;;;;;;;;;;
2023/03/06 13:02:50;;;;;;;35.1;19.2;;;;;;;;;;;;;
2023/03/06 13:05:15;;;;;;;31.7;18.1;;;;;;;;;;;;;
2023/03/06 13:07:42;;;;;;;29.1;17.7;;;;;;;;;;;;;
2023/03/06 13:10:07;;;;;;;28.8;17.2;;;;;;;;;;;;;
2023/03/06 13:12:33;;;;;;;29.9;18.5;;;;;;;;;;;;;
2023/03/06 13:14:58;;;;;;;32.1;18.1;;;;;;;;;;;;;
2023/03/06 13:17:23;;;;;;;33.1;18.6;;;;;;;;;;;;;
2023/03/06 13:19:52;;;;;;;31.9;18.3;;;;;;;;;;;;;
2023/03/06 13:22:18;;;;;;;28.9;17.5;;;;;;;;;;;;;
2023/03/06 13:24:44;;;;;;;29.4;16.7;;;;;;;;;;;;;
2023/03/06 13:27:08;;;;;;;29.6;16.5;;;;;;;;;;;;;
2023/03/06 13:29:33;;;;;;;29.8;16.9;;;;;;;;;;;;;
2023/03/06 13:31:58;;;;;;;29.1;17.1;;;;;;;;;;;;;
2023/03/06 13:34:23;;;;;;;30.1;16.4;;;;;;;;;;;;;
2023/03/06 13:36:48;;;;;;;25.9;14.9;;;;;;;;;;;;;
2023/03/06 13:39:14;;;;;;;30.9;17.1;;;;;;;;;;;;;
2023/03/06 13:41:39;;;;;;;26.8;15.5;;;;;;;;;;;;;
2023/03/06 13:44:04;;;;;;;27.1;15.7;;;;;;;;;;;;;
2023/03/06 13:46:29;;;;;;;24.7;14.8;;;;;;;;;;;;;
2023/03/06 13:48:54;;;;;;;26.8;14.9;;;;;;;;;;;;;
2023/03/06 13:51:19;;;;;;;25.6;15.1;;;;;;;;;;;;;
2023/03/06 13:53:45;;;;;;;27.2;15.4;;;;;;;;;;;;;
2023/03/06 13:56:11;;;;;;;26.9;15;;;;;;;;;;;;;
2023/03/06 13:58:36;;;;;;;24.9;15;;;;;;;;;;;;;
2023/03/06 14:01:02;;;;;;;26.2;14.6;;;;;;;;;;;;;
2023/03/06 14:03:27;;;;;;;25.8;14.7;;;;;;;;;;;;;
2023/03/06 14:05:53;;;;;;;23.4;14.2;;;;;;;;;;;;;
2023/03/06 14:08:18;;;;;;;21.8;13.4;;;;;;;;;;;;;
2023/03/06 14:10:43;;;;;;;25.1;14.7;;;;;;;;;;;;;
2023/03/06 14:13:09;;;;;;;24.9;14.6;;;;;;;;;;;;;
2023/03/06 14:15:34;;;;;;;25.3;13.4;;;;;;;;;;;;;
2023/03/06 14:18:01;;;;;;;26.8;14;;;;;;;;;;;;;
2023/03/06 14:20:29;;;;;;;23.3;13.1;;;;;;;;;;;;;
2023/03/06 14:22:54;;;;;;;21.9;12.9;;;;;;;;;;;;;
2023/03/06 14:25:19;;;;;;;23.9;13;;;;;;;;;;;;;
2023/03/06 14:27:45;;;;;;;21.1;11.8;;;;;;;;;;;;;
2023/03/06 14:30:14;;;;;;;22.5;13.4;;;;;;;;;;;;;
2023/03/06 14:32:42;;;;;;;24.7;13.2;;;;;;;;;;;;;
2023/03/06 14:35:07;;;;;;;21.9;12.3;;;;;;;;;;;;;
2023/03/06 14:37:35;;;;;;;20.8;12.2;;;;;;;;;;;;;
2023/03/06 14:40:00;;;;;;;19.6;12.4;;;;;;;;;;;;;
2023/03/06 14:42:25;;;;;;;18.5;11.5;;;;;;;;;;;;;
2023/03/06 14:44:53;;;;;;;21.1;12.7;;;;;;;;;;;;;
2023/03/06 14:47:22;;;;;;;18.7;11.5;;;;;;;;;;;;;
2023/03/06 14:49:47;;;;;;;21.2;11.5;;;;;;;;;;;;;
2023/03/06 14:52:15;;;;;;;22.1;11.9;;;;;;;;;;;;;
2023/03/06 14:54:41;;;;;;;18.1;11.3;;;;;;;;;;;;;
2023/03/06 14:57:07;;;;;;;19.4;11.3;;;;;;;;;;;;;
2023/03/06 14:59:32;;;;;;;21.7;12.4;;;;;;;;;;;;;
2023/03/06 15:01:58;;;;;;;22.4;11.7;;;;;;;;;;;;;
2023/03/06 15:04:23;;;;;;;19.8;12.1;;;;;;;;;;;;;
2023/03/06 15:06:50;;;;;;;19.6;11.3;;;;;;;;;;;;;
2023/03/06 15:09:15;;;;;;;19.3;11.5;;;;;;;;;;;;;
2023/03/06 15:11:41;;;;;;;18.7;10.9;;;;;;;;;;;;;
2023/03/06 15:14:06;;;;;;;19.9;11.3;;;;;;;;;;;;;
2023/03/06 15:16:31;;;;;;;18.9;11.1;;;;;;;;;;;;;
2023/03/06 15:18:56;;;;;;;20.7;11.2;;;;;;;;;;;;;
2023/03/06 15:21:22;;;;;;;19.7;11.2;;;;;;;;;;;;;
2023/03/06 15:23:47;;;;;;;20.3;11.3;;;;;;;;;;;;;
2023/03/06 15:26:12;;;;;;;17.1;11.3;;;;;;;;;;;;;
2023/03/06 15:28:39;;;;;;;17.9;11.2;;;;;;;;;;;;;
2023/03/06 15:31:04;;;;;;;18.5;10.9;;;;;;;;;;;;;
2023/03/06 15:33:29;;;;;;;17.2;10.6;;;;;;;;;;;;;
2023/03/06 15:35:56;;;;;;;19.4;11.2;;;;;;;;;;;;;
2023/03/06 15:38:20;;;;;;;19.1;11.5;;;;;;;;;;;;;
2023/03/06 15:40:50;;;;;;;16.8;10.5;;;;;;;;;;;;;
2023/03/06 15:43:12;;;;;;;19.5;11;;;;;;;;;;;;;
2023/03/06 15:45:36;;;;;;;18.7;11.1;;;;;;;;;;;;;
2023/03/06 15:48:02;;;;;;;18.1;10.8;;;;;;;;;;;;;
2023/03/06 15:50:27;;;;;;;21.4;10.7;;;;;;;;;;;;;
2023/03/06 15:52:52;;;;;;;18;11;;;;;;;;;;;;;
2023/03/06 15:55:18;;;;;;;19.9;10.6;;;;;;;;;;;;;
2023/03/06 15:57:43;;;;;;;19.3;11.1;;;;;;;;;;;;;
2023/03/06 16:00:10;;;;;;;16.8;10.2;;;;;;;;;;;;;
2023/03/06 16:02:35;;;;;;;17.4;10.9;;;;;;;;;;;;;
2023/03/06 16:05:01;;;;;;;19.1;11;;;;;;;;;;;;;
2023/03/06 16:07:29;;;;;;;18.3;11.5;;;;;;;;;;;;;
2023/03/06 16:09:54;;;;;;;16.5;10.7;;;;;;;;;;;;;
2023/03/06 16:12:19;;;;;;;16.7;10.2;;;;;;;;;;;;;
2023/03/06 16:14:46;;;;;;;20.3;10.8;;;;;;;;;;;;;
2023/03/06 16:17:13;;;;;;;18.3;11;;;;;;;;;;;;;
2023/03/06 16:19:38;;;;;;;17.3;10.2;;;;;;;;;;;;;
2023/03/06 16:22:05;;;;;;;21.1;11;;;;;;;;;;;;;
2023/03/06 16:24:30;;;;;;;16.8;10.6;;;;;;;;;;;;;
2023/03/06 16:26:55;;;;;;;19.2;11.2;;;;;;;;;;;;;
2023/03/06 16:29:20;;;;;;;20.2;11.7;;;;;;;;;;;;;
2023/03/06 16:31:47;;;;;;;17.7;10.8;;;;;;;;;;;;;
2023/03/06 16:34:11;;;;;;;17.8;11;;;;;;;;;;;;;
2023/03/06 16:36:38;;;;;;;18.6;10.9;;;;;;;;;;;;;
2023/03/06 16:39:04;;;;;;;18.2;10.5;;;;;;;;;;;;;
2023/03/06 16:41:29;;;;;;;19.6;11.2;;;;;;;;;;;;;
2023/03/06 16:43:54;;;;;;;22.1;11.5;;;;;;;;;;;;;
2023/03/06 16:46:21;;;;;;;17.9;11;;;;;;;;;;;;;
2023/03/06 16:48:47;;;;;;;20;11.9;;;;;;;;;;;;;
2023/03/06 16:51:12;;;;;;;17.5;11.3;;;;;;;;;;;;;
2023/03/06 16:53:37;;;;;;;18.6;11.1;;;;;;;;;;;;;
2023/03/06 16:56:02;;;;;;;16.8;10.3;;;;;;;;;;;;;
2023/03/06 16:58:27;;;;;;;17.8;10.5;;;;;;;;;;;;;
2023/03/06 17:00:53;;;;;;;18.8;10.3;;;;;;;;;;;;;
2023/03/06 17:03:18;;;;;;;17.1;10.2;;;;;;;;;;;;;
2023/03/06 17:05:46;;;;;;;18;11.4;;;;;;;;;;;;;
2023/03/06 17:08:11;;;;;;;18.7;10.6;;;;;;;;;;;;;
2023/03/06 17:10:36;;;;;;;18.4;11;;;;;;;;;;;;;
2023/03/06 17:13:01;;;;;;;18.9;10.7;;;;;;;;;;;;;
2023/03/06 17:15:29;;;;;;;19.5;10.4;;;;;;;;;;;;;
2023/03/06 17:17:54;;;;;;;19.6;10.7;;;;;;;;;;;;;
2023/03/06 17:20:19;;;;;;;19.4;11;;;;;;;;;;;;;
2023/03/06 17:22:44;;;;;;;18.5;11;;;;;;;;;;;;;
2023/03/06 17:25:12;;;;;;;25.8;15.9;;;;;;;;;;;;;
2023/03/06 17:27:37;;;;;;;31.7;17.2;;;;;;;;;;;;;
2023/03/06 17:30:03;;;;;;;20.2;12.8;;;;;;;;;;;;;
2023/03/06 17:32:28;;;;;;;21.2;11.4;;;;;;;;;;;;;
2023/03/06 17:34:55;;;;;;;17.7;10.9;;;;;;;;;;;;;
2023/03/06 17:37:20;;;;;;;19.2;11;;;;;;;;;;;;;
2023/03/06 17:39:46;;;;;;;37.2;23.3;;;;;;;;;;;;;
2023/03/06 17:42:11;;;;;;;25.7;15.9;;;;;;;;;;;;;
2023/03/06 17:44:37;;;;;;;23.4;16.1;;;;;;;;;;;;;
2023/03/06 17:47:02;;;;;;;26.3;17.2;;;;;;;;;;;;;
2023/03/06 17:49:28;;;;;;;27;17.4;;;;;;;;;;;;;
2023/03/06 17:51:53;;;;;;;17.5;12;;;;;;;;;;;;;
2023/03/06 17:54:18;;;;;;;18.7;11.7;;;;;;;;;;;;;
2023/03/06 17:56:43;;;;;;;19.7;11.9;;;;;;;;;;;;;
2023/03/06 17:59:11;;;;;;;19.7;11.1;;;;;;;;;;;;;
2023/03/06 18:01:36;;;;;;;19.9;12.3;;;;;;;;;;;;;
2023/03/06 18:04:03;;;;;;;20.3;11.3;;;;;;;;;;;;;
2023/03/06 18:06:29;;;;;;;34.7;16.1;;;;;;;;;;;;;
2023/03/06 18:08:54;;;;;;;50.8;22.4;;;;;;;;;;;;;
2023/03/06 18:11:19;;;;;;;75.1;30.9;;;;;;;;;;;;;